Time;durP1;ratioP1;P1;durP2;ratioP2;P2;SDS_P1;SDS_P2;PMS_P1;PMS_P2;Temp;Humidity;BMP_temperature;BMP_pressure;BME280_temperature;BME280_humidity;BME280_pressure;Samples;Min_cycle;Max_cycle;Signal;HPM_P1;HPM_P2
2021/12/28 00:01:01;;;;;;;16.48;9.38;;;19.60;43.00;;;;;;6218988;28;20357;-72
2021/12/28 00:04:02;;;;;;;18.30;9.65;;;19.60;43.00;;;;;;6219679;28;20030;-73
2021/12/28 00:07:03;;;;;;;18.08;10.13;;;19.60;43.00;;;;;;6203921;28;20022;-72
2021/12/28 00:10:06;;;;;;;16.98;9.93;;;19.60;43.00;;;;;;6195065;28;20033;-72
2021/12/28 00:13:07;;;;;;;15.32;8.77;;;19.50;42.90;;;;;;6212689;28;20117;-73
2021/12/28 00:16:28;;;;;;;17.70;9.90;;;19.60;43.00;;;;;;6201683;28;20393;-73
2021/12/28 00:19:28;;;;;;;15.85;9.02;;;19.60;43.00;;;;;;6214031;28;20103;-73
2021/12/28 00:22:29;;;;;;;16.83;9.80;;;19.60;43.10;;;;;;6203858;28;20030;-73
2021/12/28 00:25:29;;;;;;;13.90;8.75;;;19.60;43.10;;;;;;6219357;28;20064;-73
2021/12/28 00:28:30;;;;;;;16.17;9.25;;;19.60;43.10;;;;;;6218925;28;20032;-73
2021/12/28 00:31:30;;;;;;;16.48;9.55;;;19.50;43.00;;;;;;6207184;28;20038;-73
2021/12/28 00:34:33;;;;;;;16.25;9.10;;;19.50;43.00;;;;;;6194594;28;20035;-72
2021/12/28 00:37:34;;;;;;;16.27;9.50;;;19.50;43.00;;;;;;6214833;28;20037;-72
2021/12/28 00:40:35;;;;;;;15.63;9.70;;;19.50;43.10;;;;;;6219079;28;20029;-73
2021/12/28 00:43:37;;;;;;;16.05;9.10;;;19.50;43.00;;;;;;6219892;28;20539;-73
2021/12/28 00:46:38;;;;;;;17.02;9.82;;;19.50;43.00;;;;;;6218852;28;20030;-72
2021/12/28 00:49:38;;;;;;;16.17;9.27;;;19.50;43.00;;;;;;6218960;28;20588;-72
2021/12/28 00:52:40;;;;;;;16.02;9.27;;;19.50;43.10;;;;;;6218813;28;20038;-72
2021/12/28 00:55:41;;;;;;;17.15;9.50;;;19.50;43.10;;;;;;6200672;28;20148;-73
2021/12/28 00:58:41;;;;;;;16.88;9.30;;;19.50;43.10;;;;;;6213972;28;20511;-72
2021/12/28 01:01:42;;;;;;;15.60;8.93;;;19.50;43.10;;;;;;6218232;28;20048;-73
2021/12/28 01:04:42;;;;;;;14.93;9.23;;;19.50;43.10;;;;;;6215633;28;20037;-74
2021/12/28 01:07:43;;;;;;;17.10;9.95;;;19.50;43.10;;;;;;6198187;28;20481;-72
2021/12/28 01:10:48;;;;;;;18.15;9.98;;;19.50;43.10;;;;;;6195075;28;20096;-72
2021/12/28 01:13:49;;;;;;;16.95;9.88;;;19.50;43.00;;;;;;6218811;28;20022;-72
2021/12/28 01:16:50;;;;;;;14.88;9.25;;;19.50;43.00;;;;;;6215052;28;20081;-72
2021/12/28 01:19:50;;;;;;;15.88;9.35;;;19.50;43.10;;;;;;6215968;28;20560;-72
2021/12/28 01:22:51;;;;;;;16.27;9.43;;;19.50;43.10;;;;;;6220618;28;20377;-73
2021/12/28 01:25:52;;;;;;;15.50;9.02;;;19.50;43.10;;;;;;6223497;28;20033;-72
2021/12/28 01:28:52;;;;;;;17.67;10.45;;;19.50;43.10;;;;;;6174551;28;20126;-72
2021/12/28 01:31:53;;;;;;;15.20;9.52;;;19.50;43.10;;;;;;6207398;28;20042;-72
2021/12/28 01:34:54;;;;;;;17.60;9.93;;;19.50;43.10;;;;;;6200276;28;20513;-72
2021/12/28 01:37:55;;;;;;;16.38;9.63;;;19.50;43.10;;;;;;6218895;28;20018;-72
2021/12/28 01:40:56;;;;;;;16.73;9.68;;;19.50;43.10;;;;;;6208046;28;20117;-73
2021/12/28 01:43:59;;;;;;;15.98;9.40;;;19.50;43.10;;;;;;6215512;28;20103;-72
2021/12/28 01:47:00;;;;;;;16.73;9.40;;;19.50;43.20;;;;;;6218063;28;20121;-73
2021/12/28 01:50:01;;;;;;;14.77;8.73;;;19.50;43.10;;;;;;6219597;28;20041;-72
2021/12/28 01:53:02;;;;;;;15.65;9.55;;;19.50;43.20;;;;;;6222426;28;20108;-72
2021/12/28 01:56:06;;;;;;;15.77;8.90;;;19.50;43.10;;;;;;6219431;28;20057;-74
2021/12/28 01:59:09;;;;;;;14.70;8.83;;;19.50;43.10;;;;;;6219446;28;20508;-72
2021/12/28 02:02:09;;;;;;;15.25;8.98;;;19.50;43.10;;;;;;6221876;28;20073;-72
2021/12/28 02:05:10;;;;;;;17.95;9.75;;;19.50;43.10;;;;;;6219064;28;20022;-72
2021/12/28 02:08:15;;;;;;;14.57;8.98;;;19.50;43.10;;;;;;6197593;28;20077;-73
2021/12/28 02:11:15;;;;;;;16.20;9.18;;;19.50;43.10;;;;;;6200743;28;20037;-72
2021/12/28 02:14:16;;;;;;;18.85;10.05;;;19.50;43.20;;;;;;6222469;28;20068;-72
2021/12/28 02:17:16;;;;;;;18.55;10.20;;;19.50;43.10;;;;;;6221980;28;20096;-73
2021/12/28 02:20:19;;;;;;;17.85;10.35;;;19.50;43.10;;;;;;6212399;28;20501;-72
2021/12/28 02:23:20;;;;;;;17.23;9.85;;;19.50;43.10;;;;;;6216560;28;20049;-72
2021/12/28 02:26:21;;;;;;;19.25;9.65;;;19.50;43.10;;;;;;6221699;28;20029;-73
2021/12/28 02:29:21;;;;;;;16.15;9.38;;;19.50;43.10;;;;;;6221716;28;20045;-72
2021/12/28 02:32:26;;;;;;;14.93;9.20;;;19.50;43.10;;;;;;6202750;28;20046;-73
2021/12/28 02:35:27;;;;;;;16.80;9.82;;;19.50;43.10;;;;;;6203322;28;20068;-73
2021/12/28 02:38:29;;;;;;;18.40;9.88;;;19.50;43.10;;;;;;6218572;28;20528;-73
2021/12/28 02:41:30;;;;;;;15.80;9.48;;;19.50;43.10;;;;;;6221389;28;20488;-73
2021/12/28 02:44:30;;;;;;;16.63;9.00;;;19.40;43.00;;;;;;6221612;28;20034;-72
2021/12/28 02:47:32;;;;;;;16.77;9.65;;;19.50;43.20;;;;;;6220931;28;20026;-72
2021/12/28 02:50:42;;;;;;;15.63;9.15;;;19.50;43.20;;;;;;6221312;28;20046;-73
2021/12/28 02:53:44;;;;;;;15.85;9.65;;;19.50;43.10;;;;;;6213711;28;20104;-73
2021/12/28 02:56:44;;;;;;;15.00;9.48;;;19.40;43.00;;;;;;6210648;28;20097;-73
2021/12/28 02:59:50;;;;;;;16.33;9.10;;;19.40;43.10;;;;;;6221229;28;20104;-72
2021/12/28 03:02:50;;;;;;;15.65;9.68;;;19.40;43.10;;;;;;6220546;28;20073;-73
2021/12/28 03:05:53;;;;;;;14.90;9.30;;;19.50;43.20;;;;;;6220904;28;20022;-73
2021/12/28 03:08:56;;;;;;;16.58;9.90;;;19.40;43.10;;;;;;6217597;28;20440;-72
2021/12/28 03:11:56;;;;;;;17.67;9.75;;;19.40;43.00;;;;;;6220273;28;20033;-72
2021/12/28 03:14:57;;;;;;;16.75;10.07;;;19.50;43.10;;;;;;6220810;28;20487;-72
2021/12/28 03:17:58;;;;;;;16.20;9.57;;;19.50;43.90;;;;;;6214307;28;20026;-73
2021/12/28 03:20:58;;;;;;;14.50;8.95;;;19.40;43.00;;;;;;6220271;28;20369;-73
2021/12/28 03:23:59;;;;;;;15.38;9.32;;;19.50;43.20;;;;;;6220723;28;20046;-73
2021/12/28 03:27:00;;;;;;;16.38;9.38;;;19.40;43.20;;;;;;6220657;28;20105;-73
2021/12/28 03:30:02;;;;;;;17.98;9.82;;;19.40;43.10;;;;;;6217998;28;20376;-72
2021/12/28 03:33:03;;;;;;;17.13;10.05;;;19.40;43.20;;;;;;6196452;28;20037;-72
2021/12/28 03:36:05;;;;;;;17.05;9.82;;;19.40;43.10;;;;;;6215614;28;20030;-72
2021/12/28 03:39:06;;;;;;;16.52;9.98;;;19.50;43.20;;;;;;6220218;28;20443;-73
2021/12/28 03:42:08;;;;;;;16.10;9.48;;;19.50;43.20;;;;;;6219704;28;20030;-72
2021/12/28 03:45:09;;;;;;;16.52;9.73;;;19.40;43.20;;;;;;6218350;28;20025;-72
2021/12/28 03:48:10;;;;;;;15.98;9.80;;;19.40;43.10;;;;;;6219545;28;20029;-74
2021/12/28 03:51:11;;;;;;;16.98;10.02;;;19.40;43.10;;;;;;6216781;28;20121;-73
2021/12/28 03:54:11;;;;;;;17.67;10.40;;;19.40;43.10;;;;;;6219577;28;20105;-73
2021/12/28 03:57:12;;;;;;;18.80;9.95;;;19.50;43.20;;;;;;6219825;28;20032;-72
2021/12/28 04:00:39;;;;;;;15.52;9.82;;;19.40;43.10;;;;;;6219403;28;20018;-72
2021/12/28 04:03:40;;;;;;;17.05;9.70;;;19.50;43.20;;;;;;6219506;28;20077;-72
2021/12/28 04:06:40;;;;;;;14.07;8.77;;;19.40;43.10;;;;;;6207713;28;20385;-72
2021/12/28 04:12:47;;;;;;;16.60;9.93;;;19.40;43.20;;;;;;6213330;28;20515;-73
2021/12/28 04:15:48;;;;;;;16.75;9.45;;;19.40;43.10;;;;;;6219617;28;20877;-73
2021/12/28 04:18:49;;;;;;;15.40;9.90;;;19.40;43.10;;;;;;6219375;28;20022;-73
2021/12/28 04:21:50;;;;;;;16.38;9.57;;;19.40;43.20;;;;;;6207119;28;20065;-75
2021/12/28 04:24:50;;;;;;;18.20;10.30;;;19.40;43.10;;;;;;6219813;28;20479;-72
2021/12/28 04:27:51;;;;;;;15.50;9.52;;;19.40;43.10;;;;;;6218973;28;20160;-73
2021/12/28 04:30:52;;;;;;;18.13;10.05;;;19.40;43.20;;;;;;6212897;28;20107;-73
2021/12/28 04:33:52;;;;;;;14.27;9.18;;;19.40;43.10;;;;;;6194255;28;20034;-73
2021/12/28 04:36:53;;;;;;;16.55;9.85;;;19.40;43.20;;;;;;6212943;28;20057;-73
2021/12/28 04:39:53;;;;;;;16.38;9.98;;;19.40;43.10;;;;;;6215875;28;20117;-73
2021/12/28 04:42:54;;;;;;;18.17;9.65;;;19.40;43.20;;;;;;6215786;28;20022;-73
2021/12/28 04:45:55;;;;;;;18.83;10.35;;;19.40;43.20;;;;;;6203158;28;20477;-72
2021/12/28 04:48:56;;;;;;;17.65;9.68;;;19.40;43.20;;;;;;6219121;28;20025;-72
2021/12/28 04:51:57;;;;;;;18.77;10.10;;;19.40;43.10;;;;;;6218980;28;20112;-72
2021/12/28 04:54:58;;;;;;;17.20;10.13;;;19.40;43.20;;;;;;6201564;28;20109;-73
2021/12/28 04:57:58;;;;;;;17.15;10.13;;;19.40;43.20;;;;;;6221250;28;20022;-73
2021/12/28 05:00:59;;;;;;;16.02;9.52;;;19.40;43.20;;;;;;6223716;28;20078;-72
2021/12/28 05:04:00;;;;;;;15.77;9.20;;;19.40;43.20;;;;;;6223777;28;20480;-73
2021/12/28 05:07:00;;;;;;;17.38;10.32;;;19.40;43.20;;;;;;6223865;28;20028;-72
2021/12/28 05:10:01;;;;;;;17.95;10.13;;;19.40;43.20;;;;;;6223938;28;20026;-73
2021/12/28 05:13:02;;;;;;;17.30;10.27;;;19.40;43.30;;;;;;6223589;28;20034;-73
2021/12/28 05:16:02;;;;;;;17.15;9.90;;;19.40;43.20;;;;;;6223621;28;20350;-73
2021/12/28 05:19:05;;;;;;;17.45;10.40;;;19.40;43.20;;;;;;6223565;28;20022;-72
2021/12/28 05:22:08;;;;;;;16.77;9.65;;;19.40;43.30;;;;;;6223102;28;20029;-73
2021/12/28 05:25:09;;;;;;;15.77;10.02;;;19.40;43.20;;;;;;6223205;28;20026;-73
2021/12/28 05:28:09;;;;;;;17.17;9.93;;;19.50;43.30;;;;;;6222796;28;20614;-73
2021/12/28 05:31:11;;;;;;;18.48;10.00;;;19.40;43.10;;;;;;6209493;28;20125;-73
2021/12/28 05:34:12;;;;;;;18.08;10.27;;;19.50;43.30;;;;;;6198959;28;20025;-73
2021/12/28 05:37:12;;;;;;;17.25;10.18;;;19.40;43.20;;;;;;6219111;28;20380;-72
2021/12/28 05:40:14;;;;;;;17.38;9.98;;;19.50;43.20;;;;;;6223066;28;20071;-72
2021/12/28 05:43:15;;;;;;;15.57;9.38;;;19.50;43.30;;;;;;6222938;28;20030;-73
2021/12/28 05:46:16;;;;;;;18.33;10.23;;;19.50;43.30;;;;;;6221889;28;20136;-72
2021/12/28 05:49:17;;;;;;;16.05;9.50;;;19.50;43.30;;;;;;6222697;28;20244;-73
2021/12/28 05:52:17;;;;;;;16.52;9.80;;;19.50;44.10;;;;;;6222696;28;20030;-73
2021/12/28 05:55:18;;;;;;;15.40;10.00;;;19.50;43.30;;;;;;6222655;28;20385;-72
2021/12/28 05:58:19;;;;;;;16.52;9.93;;;19.50;43.30;;;;;;6222785;28;20561;-72
2021/12/28 06:01:19;;;;;;;16.45;9.85;;;19.60;43.50;;;;;;6211683;28;20047;-73
2021/12/28 06:04:20;;;;;;;16.73;9.63;;;19.60;43.50;;;;;;6174127;28;20033;-72
2021/12/28 06:07:21;;;;;;;18.52;10.50;;;19.60;43.50;;;;;;6195048;28;20030;-73
2021/12/28 06:10:22;;;;;;;17.50;10.85;;;19.60;43.50;;;;;;6221365;28;20036;-72
2021/12/28 06:13:23;;;;;;;18.15;9.90;;;19.60;43.50;;;;;;6222421;28;20034;-74
2021/12/28 06:16:24;;;;;;;16.85;10.18;;;19.60;43.50;;;;;;6222191;28;20057;-72
2021/12/28 06:19:24;;;;;;;16.10;9.93;;;19.60;43.50;;;;;;6221131;28;20039;-71
2021/12/28 06:22:25;;;;;;;16.33;9.95;;;19.60;43.50;;;;;;6191710;28;20392;-72
2021/12/28 06:25:25;;;;;;;18.02;10.02;;;19.60;43.50;;;;;;6221775;28;20053;-71
2021/12/28 06:28:26;;;;;;;17.00;9.95;;;19.60;43.60;;;;;;6218518;28;20029;-72
2021/12/28 06:31:28;;;;;;;17.55;10.05;;;19.60;43.60;;;;;;6210387;28;20126;-72
2021/12/28 06:34:29;;;;;;;18.75;10.75;;;19.60;43.60;;;;;;6194256;28;20027;-72
2021/12/28 06:37:29;;;;;;;17.13;9.93;;;19.60;43.60;;;;;;6220135;28;20077;-74
2021/12/28 06:40:30;;;;;;;15.73;9.30;;;19.60;43.60;;;;;;6221728;28;20029;-73
2021/12/28 06:43:31;;;;;;;15.60;9.77;;;19.60;43.70;;;;;;6218916;28;20022;-73
2021/12/28 06:46:32;;;;;;;17.55;10.23;;;19.60;43.70;;;;;;6218455;28;20030;-73
2021/12/28 06:49:32;;;;;;;18.27;10.77;;;19.60;43.70;;;;;;6221165;28;20018;-73
2021/12/28 06:52:33;;;;;;;18.58;10.43;;;19.60;43.70;;;;;;6217900;28;20042;-73
2021/12/28 06:55:34;;;;;;;19.02;10.50;;;19.60;43.70;;;;;;6203472;28;20022;-73
2021/12/28 06:58:34;;;;;;;17.10;10.45;;;19.60;43.70;;;;;;6221253;28;20464;-72
2021/12/28 07:01:35;;;;;;;18.75;10.35;;;19.60;43.80;;;;;;6200663;28;20050;-73
2021/12/28 07:04:36;;;;;;;16.88;10.13;;;19.60;43.70;;;;;;6198878;28;20069;-72
2021/12/28 07:07:38;;;;;;;16.67;10.05;;;19.60;43.80;;;;;;6198797;28;20513;-73
2021/12/28 07:10:38;;;;;;;17.52;10.20;;;19.60;43.70;;;;;;6194894;28;20029;-72
2021/12/28 07:13:39;;;;;;;16.30;9.50;;;19.70;43.90;;;;;;6201485;28;20056;-73
2021/12/28 07:16:40;;;;;;;18.73;10.10;;;19.70;43.90;;;;;;6206692;28;20053;-73
2021/12/28 07:19:40;;;;;;;18.75;10.70;;;19.70;43.90;;;;;;6207356;28;20026;-73
2021/12/28 07:22:41;;;;;;;16.55;9.88;;;19.60;43.80;;;;;;6195071;28;20022;-73
2021/12/28 07:25:42;;;;;;;18.48;10.18;;;19.70;43.90;;;;;;6209718;28;20034;-73
2021/12/28 07:28:42;;;;;;;19.15;11.55;;;19.70;43.90;;;;;;6197181;28;20030;-73
2021/12/28 07:31:43;;;;;;;20.38;10.95;;;19.70;43.90;;;;;;6202075;28;20034;-73
2021/12/28 07:34:44;;;;;;;19.10;11.25;;;19.70;43.90;;;;;;6198032;28;20508;-73
2021/12/28 07:37:44;;;;;;;18.10;10.70;;;19.70;43.90;;;;;;6194516;28;20080;-73
2021/12/28 07:40:45;;;;;;;19.63;10.52;;;19.70;43.90;;;;;;6194620;28;20056;-72
2021/12/28 07:43:46;;;;;;;17.80;10.45;;;19.70;43.90;;;;;;6195811;28;20032;-73
2021/12/28 07:46:47;;;;;;;17.35;10.43;;;19.70;43.90;;;;;;6214530;28;20417;-73
2021/12/28 07:49:47;;;;;;;18.15;10.82;;;19.70;43.90;;;;;;6220307;28;20034;-73
2021/12/28 07:52:49;;;;;;;17.52;10.00;;;19.70;43.90;;;;;;6218758;28;20030;-73
2021/12/28 07:55:50;;;;;;;19.52;10.68;;;19.70;43.90;;;;;;6209476;28;20542;-73
2021/12/28 07:58:51;;;;;;;22.55;12.30;;;19.70;44.70;;;;;;6220864;28;20038;-73
2021/12/28 08:01:51;;;;;;;19.67;11.55;;;19.70;44.00;;;;;;6216864;28;20065;-72
2021/12/28 08:04:52;;;;;;;18.35;10.45;;;19.70;44.00;;;;;;6190084;28;20019;-72
2021/12/28 08:07:53;;;;;;;19.38;10.75;;;19.70;44.00;;;;;;6218474;28;20410;-72
2021/12/28 08:10:53;;;;;;;17.48;10.20;;;19.70;44.00;;;;;;6206193;28;20044;-73
2021/12/28 08:13:54;;;;;;;20.27;11.82;;;19.70;44.00;;;;;;6219942;28;20026;-72
2021/12/28 08:16:54;;;;;;;36.58;18.83;;;19.70;44.10;;;;;;6220423;28;20030;-72
2021/12/28 08:19:55;;;;;;;30.17;17.35;;;19.60;42.60;;;;;;6213734;28;20476;-73
2021/12/28 08:22:57;;;;;;;23.70;14.55;;;19.70;42.40;;;;;;6197038;28;20478;-72
2021/12/28 08:25:57;;;;;;;23.60;14.07;;;19.70;43.10;;;;;;6209170;28;20473;-72
2021/12/28 08:28:58;;;;;;;24.08;14.23;;;19.70;43.40;;;;;;6208614;28;20037;-73
2021/12/28 08:31:58;;;;;;;24.35;13.68;;;19.70;43.50;;;;;;6204043;28;20062;-72
2021/12/28 08:34:59;;;;;;;25.70;14.10;;;19.70;43.50;;;;;;6187950;28;20448;-72
2021/12/28 08:38:00;;;;;;;23.23;13.93;;;19.70;43.60;;;;;;6203261;28;20029;-72
2021/12/28 08:41:00;;;;;;;25.52;14.15;;;19.70;43.60;;;;;;6217892;28;20389;-72
2021/12/28 08:44:02;;;;;;;23.60;14.02;;;19.70;43.60;;;;;;6195804;28;20481;-72
2021/12/28 08:47:03;;;;;;;27.92;14.95;;;19.70;43.70;;;;;;6212984;28;20046;-72
2021/12/28 08:50:07;;;;;;;23.92;14.15;;;19.70;43.70;;;;;;6219766;28;20503;-72
2021/12/28 08:53:10;;;;;;;27.47;14.90;;;19.70;43.70;;;;;;6199785;28;20046;-72
2021/12/28 08:56:10;;;;;;;25.33;14.43;;;19.70;43.80;;;;;;6199421;28;20034;-72
2021/12/28 08:59:11;;;;;;;27.15;14.93;;;19.70;43.80;;;;;;6198905;28;20027;-72
2021/12/28 09:02:12;;;;;;;26.17;14.57;;;19.70;43.80;;;;;;6211847;28;20101;-72
2021/12/28 09:05:12;;;;;;;23.92;14.02;;;19.70;43.80;;;;;;6219503;28;20022;-72
2021/12/28 09:08:16;;;;;;;26.38;14.40;;;19.70;43.90;;;;;;6206582;28;20033;-72
2021/12/28 09:11:17;;;;;;;23.67;14.15;;;19.70;43.90;;;;;;6219522;28;20531;-72
2021/12/28 09:14:18;;;;;;;24.13;14.00;;;19.70;43.90;;;;;;6219733;28;20030;-72
2021/12/28 09:17:18;;;;;;;23.67;13.95;;;19.80;44.00;;;;;;6205046;28;20172;-72
2021/12/28 09:20:22;;;;;;;25.67;14.10;;;19.80;44.00;;;;;;6220173;28;20076;-72
2021/12/28 09:23:23;;;;;;;25.63;14.20;;;19.80;43.90;;;;;;6215954;28;20381;-72
2021/12/28 09:26:24;;;;;;;24.98;14.20;;;19.80;43.80;;;;;;6204184;28;20046;-73
2021/12/28 09:29:29;;;;;;;22.42;13.20;;;19.90;43.80;;;;;;6204313;28;20057;-72
2021/12/28 09:32:29;;;;;;;23.80;14.13;;;19.90;43.80;;;;;;6198656;28;20030;-73
2021/12/28 09:35:30;;;;;;;22.50;13.35;;;19.90;43.90;;;;;;6219309;28;20038;-72
2021/12/28 09:38:31;;;;;;;23.00;13.45;;;19.90;43.90;;;;;;6219207;28;20034;-72
2021/12/28 09:41:31;;;;;;;24.73;13.55;;;19.80;43.90;;;;;;6214884;28;20077;-73
2021/12/28 09:44:33;;;;;;;23.38;13.15;;;19.80;43.90;;;;;;6197868;28;20097;-72
2021/12/28 09:47:34;;;;;;;22.35;13.30;;;19.80;44.00;;;;;;6220856;28;20033;-72
2021/12/28 09:50:35;;;;;;;21.65;13.15;;;19.80;44.00;;;;;;6209540;28;20057;-73
2021/12/28 09:53:38;;;;;;;23.63;13.65;;;19.80;44.00;;;;;;6223673;28;20056;-73
2021/12/28 09:56:39;;;;;;;21.10;12.18;;;19.80;44.00;;;;;;6222852;28;20085;-72
2021/12/28 09:59:39;;;;;;;22.25;13.50;;;19.80;44.00;;;;;;6223716;28;20573;-73
2021/12/28 10:02:40;;;;;;;21.95;12.95;;;19.80;44.10;;;;;;6223005;28;20054;-72
2021/12/28 10:05:41;;;;;;;22.13;13.07;;;19.80;44.10;;;;;;6216638;28;20034;-73
2021/12/28 10:08:43;;;;;;;22.33;12.95;;;19.80;44.10;;;;;;6216487;28;20049;-73
2021/12/28 10:11:55;;;;;;;21.13;12.05;;;19.80;44.10;;;;;;6207517;28;20480;-72
2021/12/28 10:15:00;;;;;;;21.55;12.75;;;19.80;44.20;;;;;;6209457;28;20027;-73
2021/12/28 10:18:02;;;;;;;;;;;19.80;44.20;;;;;;6218138;28;20034;-71
2021/12/28 10:21:03;;;;;;;24.00;13.23;;;19.80;44.20;;;;;;6208146;28;19913;-72
2021/12/28 10:24:04;;;;;;;21.60;12.23;;;19.80;44.20;;;;;;6211220;28;20022;-73
2021/12/28 10:27:16;;;;;;;21.02;12.02;;;19.80;44.30;;;;;;6207856;28;20084;-72
2021/12/28 10:30:21;;;;;;;20.77;12.20;;;19.80;44.30;;;;;;6218422;28;20030;-72
2021/12/28 10:33:29;;;;;;;19.42;11.90;;;19.80;44.30;;;;;;6208385;28;20060;-73
2021/12/28 10:36:37;;;;;;;23.58;12.70;;;19.80;44.30;;;;;;6206647;28;20030;-72
2021/12/28 10:39:46;;;;;;;22.55;12.10;;;19.80;44.30;;;;;;6222175;28;20040;-72
2021/12/28 10:43:00;;;;;;;19.58;11.90;;;19.80;44.30;;;;;;6215611;28;20103;-73
2021/12/28 10:46:10;;;;;;;19.57;12.23;;;19.80;44.30;;;;;;6221718;28;20034;-73
2021/12/28 10:49:11;;;;;;;21.85;12.65;;;19.80;44.30;;;;;;6217874;28;20030;-72
2021/12/28 10:52:27;;;;;;;20.30;12.02;;;19.80;44.30;;;;;;6209515;28;20504;-73
2021/12/28 10:55:28;;;;;;;19.30;12.48;;;19.80;44.30;;;;;;6197088;28;20568;-72
2021/12/28 10:58:41;;;;;;;20.27;11.63;;;19.90;44.40;;;;;;6219305;28;20038;-73
2021/12/28 11:01:42;;;;;;;20.63;11.52;;;19.80;44.40;;;;;;6221724;28;20076;-73
2021/12/28 11:04:43;;;;;;;21.15;11.15;;;19.90;44.50;;;;;;6204478;28;20030;-72
2021/12/28 11:07:59;;;;;;;23.42;11.43;;;19.90;44.60;;;;;;6214424;28;20038;-72
2021/12/28 11:11:05;;;;;;;21.25;11.80;;;19.90;44.40;;;;;;6222085;28;20504;-72
2021/12/28 11:14:09;;;;;;;21.63;11.68;;;20.00;44.40;;;;;;6222217;28;20445;-70
2021/12/28 11:17:10;;;;;;;21.77;11.60;;;20.00;44.40;;;;;;6221536;28;20033;-72
2021/12/28 11:20:11;;;;;;;19.80;11.25;;;20.00;44.30;;;;;;6212100;28;20023;-75
2021/12/28 11:23:16;;;;;;;643.13;40.63;;;20.00;44.30;;;;;;6219763;28;20037;-73
2021/12/28 11:26:25;;;;;;;1999.90;242.10;;;20.30;45.60;;;;;;6221337;28;20018;-73
2021/12/28 11:29:39;;;;;;;1105.32;88.43;;;20.60;44.60;;;;;;6220093;28;20030;-74
2021/12/28 11:32:40;;;;;;;549.70;46.60;;;20.50;45.30;;;;;;6194450;28;20034;-73
2021/12/28 11:35:40;;;;;;;467.58;46.30;;;20.50;45.90;;;;;;6203152;28;20026;-73
2021/12/28 11:38:42;;;;;;;348.63;35.65;;;20.50;44.80;;;;;;6210262;28;20030;-73
2021/12/28 11:41:44;;;;;;;289.95;38.15;;;20.30;44.80;;;;;;6222436;28;20026;-73
2021/12/28 11:44:45;;;;;;;238.07;35.30;;;20.20;44.90;;;;;;6210920;28;20022;-73
2021/12/28 11:47:45;;;;;;;232.80;36.45;;;20.20;45.00;;;;;;6218728;28;20353;-73
2021/12/28 11:50:46;;;;;;;191.25;32.35;;;20.10;45.10;;;;;;6217207;28;20076;-72
2021/12/28 11:53:47;;;;;;;162.93;30.67;;;20.10;45.10;;;;;;6206787;28;20034;-73
2021/12/28 11:56:52;;;;;;;156.90;30.52;;;20.10;45.10;;;;;;6211798;28;20022;-73
2021/12/28 11:59:56;;;;;;;161.88;29.33;;;20.10;45.10;;;;;;6219493;28;20038;-73
2021/12/28 12:02:58;;;;;;;123.88;27.35;;;20.00;45.10;;;;;;6213678;28;20548;-73
2021/12/28 12:05:59;;;;;;;122.60;27.15;;;20.00;45.10;;;;;;6215140;28;20080;-73
2021/12/28 12:09:05;;;;;;;109.30;26.63;;;20.00;45.00;;;;;;6213988;28;20022;-73
2021/12/28 12:12:08;;;;;;;103.38;24.83;;;20.00;45.00;;;;;;6201285;28;20403;-73
2021/12/28 12:15:13;;;;;;;96.43;25.70;;;20.00;45.00;;;;;;6206304;28;20030;-73
2021/12/28 12:18:15;;;;;;;;;;;20.00;45.00;;;;;;6212922;28;20029;-72
2021/12/28 12:21:18;;;;;;;77.90;22.38;;;20.00;45.00;;;;;;6197293;28;20266;-73
2021/12/28 12:24:35;;;;;;;83.97;24.02;;;20.00;45.00;;;;;;6220389;28;20056;-73
2021/12/28 12:27:57;;;;;;;70.55;22.42;;;20.00;45.10;;;;;;6219362;28;20037;-73
2021/12/28 12:31:00;;;;;;;77.05;22.30;;;20.00;45.10;;;;;;6209775;28;20038;-73
2021/12/28 12:34:02;;;;;;;67.95;19.80;;;20.00;45.10;;;;;;6207901;28;20477;-73
2021/12/28 12:37:15;;;;;;;62.70;20.98;;;20.00;45.10;;;;;;6215195;28;20354;-73
2021/12/28 12:40:15;;;;;;;64.25;19.95;;;20.00;45.10;;;;;;6215601;28;20021;-72
2021/12/28 12:43:16;;;;;;;61.50;19.73;;;20.00;45.10;;;;;;6202324;28;20018;-73
2021/12/28 12:46:27;;;;;;;59.85;19.50;;;20.00;45.10;;;;;;6205388;28;20058;-73
2021/12/28 12:49:30;;;;;;;55.80;20.55;;;20.00;45.10;;;;;;6218850;28;20026;-73
2021/12/28 12:52:31;;;;;;;53.22;19.52;;;20.00;45.10;;;;;;6216021;28;20034;-73
2021/12/28 12:55:35;;;;;;;56.75;18.95;;;19.90;45.00;;;;;;6197126;28;20111;-72
2021/12/28 12:58:46;;;;;;;56.72;18.83;;;20.00;45.10;;;;;;6216885;28;20026;-73
2021/12/28 13:01:53;;;;;;;47.75;17.58;;;20.00;45.10;;;;;;6218506;28;20576;-73
2021/12/28 13:05:01;;;;;;;40.70;16.75;;;19.90;45.10;;;;;;6203222;28;20018;-73
2021/12/28 13:08:08;;;;;;;39.08;17.33;;;19.90;45.10;;;;;;6217177;28;20041;-73
2021/12/28 13:11:09;;;;;;;41.10;17.23;;;20.00;45.10;;;;;;6184580;28;20651;-73
2021/12/28 13:14:11;;;;;;;43.25;17.05;;;19.90;45.00;;;;;;6197549;28;20030;-73
2021/12/28 13:17:16;;;;;;;44.50;17.77;;;20.00;45.10;;;;;;6209140;28;20029;-72
2021/12/28 13:20:19;;;;;;;34.83;16.00;;;20.00;45.10;;;;;;6202804;28;20030;-73
2021/12/28 13:23:20;;;;;;;41.50;16.20;;;20.00;45.10;;;;;;6213543;28;20085;-73
2021/12/28 13:26:20;;;;;;;35.50;15.55;;;20.00;45.10;;;;;;6201690;28;20037;-73
2021/12/28 13:29:27;;;;;;;35.85;16.52;;;20.00;45.10;;;;;;6204017;28;20288;-73
2021/12/28 13:32:41;;;;;;;40.35;14.95;;;20.00;45.10;;;;;;6203757;28;20512;-73
2021/12/28 13:35:43;;;;;;;35.47;15.50;;;20.00;45.10;;;;;;6197831;28;20066;-73
2021/12/28 13:38:44;;;;;;;35.90;14.82;;;20.00;45.10;;;;;;6215052;28;20026;-73
2021/12/28 13:41:52;;;;;;;34.30;14.77;;;20.00;45.10;;;;;;6217613;28;20026;-73
2021/12/28 13:44:52;;;;;;;34.13;15.50;;;20.00;45.20;;;;;;6210269;28;20064;-72
2021/12/28 13:47:53;;;;;;;29.63;14.63;;;20.00;45.20;;;;;;6215589;28;20026;-73
2021/12/28 13:50:58;;;;;;;29.27;14.07;;;20.00;45.20;;;;;;6215764;28;20092;-73
2021/12/28 13:54:00;;;;;;;;;;;20.00;45.20;;;;;;6212727;28;20566;-73
2021/12/28 13:57:02;;;;;;;32.95;14.18;;;19.90;45.10;;;;;;6222226;28;19909;-73
2021/12/28 14:00:05;;;;;;;32.50;14.00;;;20.00;45.90;;;;;;6216771;28;20038;-73
2021/12/28 14:03:07;;;;;;;33.03;14.98;;;19.90;45.20;;;;;;6222489;28;20089;-73
2021/12/28 14:06:08;;;;;;;29.88;13.45;;;20.00;45.30;;;;;;6198240;28;20034;-73
2021/12/28 14:09:14;;;;;;;25.58;12.73;;;20.00;45.20;;;;;;6217510;28;20029;-73
2021/12/28 14:12:15;;;;;;;30.75;13.80;;;20.00;45.20;;;;;;6217264;28;20456;-72
2021/12/28 14:15:16;;;;;;;27.23;13.35;;;20.00;45.20;;;;;;6218727;28;20564;-73
2021/12/28 14:18:25;;;;;;;26.40;13.23;;;20.00;45.30;;;;;;6215110;28;20030;-73
2021/12/28 14:21:31;;;;;;;27.85;12.98;;;20.00;45.20;;;;;;6210263;28;20069;-73
2021/12/28 14:24:32;;;;;;;26.77;12.38;;;20.00;45.30;;;;;;6218882;28;20030;-73
2021/12/28 14:27:36;;;;;;;24.95;12.15;;;20.00;45.30;;;;;;6210388;28;20037;-73
2021/12/28 14:30:37;;;;;;;29.95;12.38;;;20.00;45.30;;;;;;6211836;28;20038;-73
2021/12/28 14:33:47;;;;;;;27.55;13.25;;;20.00;45.30;;;;;;6210306;28;20073;-73
2021/12/28 14:36:48;;;;;;;27.75;11.50;;;20.00;45.30;;;;;;6213635;28;20034;-73
2021/12/28 14:39:52;;;;;;;23.42;12.25;;;20.00;45.30;;;;;;6217844;28;20034;-73
2021/12/28 14:42:53;;;;;;;22.73;11.30;;;20.00;45.30;;;;;;6218307;28;20110;-73
2021/12/28 14:45:54;;;;;;;23.15;10.77;;;19.90;45.30;;;;;;6221140;28;20520;-73
2021/12/28 14:48:55;;;;;;;22.05;10.90;;;20.00;45.30;;;;;;6219763;28;20045;-73
2021/12/28 14:52:17;;;;;;;24.23;11.55;;;19.90;45.30;;;;;;6206398;28;20038;-73
2021/12/28 14:55:39;;;;;;;22.60;10.45;;;20.00;45.40;;;;;;6198696;28;20081;-73
2021/12/28 14:58:40;;;;;;;21.45;10.75;;;20.00;45.30;;;;;;6213449;28;20030;-73
2021/12/28 15:01:41;;;;;;;22.08;11.07;;;20.00;45.40;;;;;;6204740;28;20424;-73
2021/12/28 15:04:50;;;;;;;26.45;10.75;;;20.00;45.30;;;;;;6206473;28;20022;-73
2021/12/28 15:07:53;;;;;;;18.13;9.90;;;20.00;45.30;;;;;;6217625;28;20018;-73
2021/12/28 15:10:55;;;;;;;20.23;10.20;;;20.00;45.30;;;;;;6201733;28;20120;-73
2021/12/28 15:13:56;;;;;;;19.73;10.82;;;20.00;45.30;;;;;;6214062;28;20033;-73
2021/12/28 15:16:57;;;;;;;17.55;9.43;;;20.00;45.40;;;;;;6220776;28;20041;-73
2021/12/28 15:19:57;;;;;;;20.70;11.35;;;20.00;45.40;;;;;;6205258;28;20030;-72
2021/12/28 15:22:58;;;;;;;16.15;9.00;;;20.00;45.40;;;;;;6210732;28;20033;-72
2021/12/28 15:26:00;;;;;;;17.52;10.48;;;20.00;45.40;;;;;;6197086;28;20027;-73
2021/12/28 15:29:00;;;;;;;32.70;10.27;;;20.00;45.40;;;;;;6212240;28;20503;-72
2021/12/28 15:32:01;;;;;;;22.63;9.88;;;20.00;45.60;;;;;;6202815;28;20042;-72